createdAt,value
2019-03-08T00:00:59.709Z,9.30
2019-03-08T00:03:28.688Z,9.30
2019-03-08T00:05:57.816Z,9.30
2019-03-08T00:08:26.824Z,9.30
2019-03-08T00:10:55.825Z,9.30
2019-03-08T00:15:53.502Z,9.20
2019-03-08T00:20:51.150Z,9.20
2019-03-08T00:23:20.129Z,9.30
2019-03-08T00:28:17.736Z,9.20
2019-03-08T00:30:46.836Z,9.20
2019-03-08T00:33:15.853Z,9.20
2019-03-08T00:35:44.857Z,9.20
2019-03-08T00:38:13.812Z,9.10
2019-03-08T00:40:43.267Z,9.10
2019-03-08T00:43:12.354Z,9.10
2019-03-08T00:45:41.457Z,9.10
2019-03-08T00:48:10.688Z,9.10
2019-03-08T00:50:39.789Z,9.10
2019-03-08T00:53:08.764Z,9.10
2019-03-08T00:55:38.049Z,9.10
2019-03-08T00:58:07.196Z,9.10
2019-03-08T01:00:36.236Z,9.10
2019-03-08T01:08:02.357Z,9.00
2019-03-08T01:10:31.661Z,9.00
2019-03-08T01:13:00.629Z,9.00
2019-03-08T06:12:56.903Z,6.30
2019-03-08T07:17:39.492Z,7.00
2019-03-08T07:20:33.461Z,7.10
2019-03-08T07:23:28.014Z,7.10
2019-03-08T07:29:20.449Z,7.30
2019-03-08T07:31:58.879Z,7.20
2019-03-08T07:34:45.270Z,7.20
2019-03-08T07:37:36.430Z,7.30
2019-03-08T07:40:23.864Z,7.50
2019-03-08T07:43:11.876Z,7.70
2019-03-08T07:46:14.980Z,8.00
2019-03-08T07:49:08.562Z,8.20
2019-03-08T07:51:47.463Z,8.30
2019-03-08T07:54:23.876Z,8.30
2019-03-08T07:57:03.451Z,8.40
2019-03-08T07:59:43.640Z,8.50
2019-03-08T08:02:21.529Z,8.50
2019-03-08T08:05:15.590Z,8.30
2019-03-08T08:08:03.571Z,8.40
2019-03-08T08:11:01.001Z,8.50
2019-03-08T08:13:49.144Z,8.50
2019-03-08T08:16:41.781Z,8.50
2019-03-08T08:25:36.794Z,8.80
2019-03-08T08:28:15.751Z,9.00
2019-03-08T08:31:02.744Z,8.90
2019-03-08T08:33:53.881Z,8.80
2019-03-08T08:36:57.350Z,8.60
2019-03-08T08:39:44.261Z,8.50
2019-03-08T08:42:27.045Z,8.70
2019-03-08T08:45:11.307Z,8.70
2019-03-08T08:48:05.363Z,8.70
2019-03-08T08:50:56.192Z,9.00
2019-03-08T08:56:29.522Z,9.20
2019-03-08T08:59:26.853Z,9.30
2019-03-08T09:02:30.265Z,9.40
2019-03-08T09:05:15.336Z,9.70
2019-03-08T09:08:09.151Z,9.60
2019-03-08T09:11:06.393Z,9.80
2019-03-08T09:13:57.192Z,9.70
2019-03-08T09:16:40.497Z,9.60
2019-03-08T09:19:43.299Z,9.50
2019-03-08T09:22:30.828Z,10.00
2019-03-08T09:25:05.238Z,10.10
2019-03-08T09:28:05.592Z,10.30
2019-03-08T09:30:50.171Z,10.30
2019-03-08T09:33:26.807Z,10.60
2019-03-08T09:47:59.049Z,10.60
2019-03-08T09:50:59.472Z,10.60
2019-03-08T09:53:34.930Z,11.50
2019-03-08T09:56:22.952Z,11.70
2019-03-08T09:59:06.933Z,12.00
2019-03-08T10:01:42.010Z,11.50
2019-03-08T10:04:26.102Z,12.80
2019-03-08T10:07:23.288Z,13.10
2019-03-08T10:10:14.180Z,12.80
2019-03-08T10:13:02.200Z,12.30
2019-03-08T10:16:02.422Z,13.20
2019-03-08T10:21:37.368Z,12.60
2019-03-08T10:24:28.450Z,13.40
2019-03-08T10:27:21.701Z,13.10
2019-03-08T10:32:52.970Z,12.70
2019-03-08T10:35:44.136Z,12.50
2019-03-08T10:38:28.322Z,11.60
2019-03-08T10:41:15.369Z,11.50
2019-03-08T10:44:08.732Z,13.00
2019-03-08T10:47:07.363Z,13.80
2019-03-08T10:49:55.521Z,14.30
2019-03-08T10:55:51.769Z,15.00
2019-03-08T10:58:39.779Z,14.50
2019-03-08T11:01:26.598Z,14.70
2019-03-08T11:04:12.329Z,14.50
2019-03-08T11:06:54.486Z,14.80
2019-03-08T11:09:48.265Z,14.50
2019-03-08T11:12:35.031Z,15.70
2019-03-08T11:17:57.404Z,14.20
2019-03-08T11:20:46.326Z,14.50
2019-03-08T11:23:43.578Z,13.70
2019-03-08T11:26:23.115Z,14.00
2019-03-08T11:29:10.074Z,14.70
2019-03-08T11:34:30.116Z,14.40
2019-03-08T11:37:09.186Z,15.30
2019-03-08T11:39:57.209Z,15.80
2019-03-08T11:42:32.420Z,15.80
2019-03-08T11:45:17.770Z,14.30
2019-03-08T11:48:12.179Z,13.60
2019-03-08T11:51:06.524Z,14.30
2019-03-08T11:56:30.572Z,13.50
2019-03-08T11:59:09.573Z,13.60
2019-03-08T12:01:49.409Z,13.40
2019-03-08T12:04:28.912Z,13.50
2019-03-08T12:07:19.712Z,13.30
2019-03-08T12:12:42.961Z,12.30
2019-03-08T12:15:20.093Z,12.60
2019-03-08T12:18:03.367Z,12.60
2019-03-08T12:20:45.013Z,13.10
2019-03-08T12:23:48.209Z,13.10
2019-03-08T12:26:34.700Z,13.70
2019-03-08T12:32:02.842Z,14.70
2019-03-08T12:34:39.519Z,15.20
2019-03-08T12:37:19.472Z,14.10
2019-03-08T12:42:46.050Z,14.40
2019-03-08T12:48:29.704Z,14.20
2019-03-08T12:51:06.949Z,14.50
2019-03-08T12:53:53.705Z,14.90
2019-03-08T12:56:44.784Z,14.50
2019-03-08T12:59:47.816Z,14.80
2019-03-08T13:02:34.716Z,14.70
2019-03-08T13:05:28.853Z,14.20
2019-03-08T13:08:16.876Z,12.90
2019-03-08T13:13:14.812Z,12.90
2019-03-08T13:15:43.764Z,12.90
2019-03-08T13:18:12.703Z,12.80
2019-03-08T13:20:41.778Z,12.20
2019-03-08T13:23:10.812Z,12.00
2019-03-08T13:25:39.856Z,12.10
2019-03-08T13:28:08.954Z,12.30
2019-03-08T13:30:37.933Z,12.30
2019-03-08T13:35:35.947Z,12.30
2019-03-08T13:38:06.867Z,12.20
2019-03-08T13:40:35.758Z,12.10
2019-03-08T13:43:04.815Z,12.10
2019-03-08T13:45:33.790Z,11.90
2019-03-08T13:48:02.886Z,11.90
2019-03-08T13:50:32.142Z,12.30
2019-03-08T13:53:01.255Z,12.20
2019-03-08T13:55:30.215Z,12.60
2019-03-08T13:57:59.267Z,13.00
2019-03-08T14:00:28.169Z,13.20
2019-03-08T14:02:57.281Z,13.00
2019-03-08T14:05:26.253Z,13.10
2019-03-08T14:07:55.218Z,13.00
2019-03-08T14:10:24.250Z,12.40
2019-03-08T14:12:53.236Z,11.40
2019-03-08T14:15:22.424Z,10.80
2019-03-08T14:17:51.613Z,10.60
2019-03-08T14:20:20.866Z,10.40
2019-03-08T14:22:49.945Z,10.30
2019-03-08T14:25:18.850Z,9.70
2019-03-08T14:30:17.512Z,9.70
2019-03-08T14:32:46.828Z,9.60
2019-03-08T14:37:44.371Z,9.70
2019-03-08T14:40:32.661Z,9.70
2019-03-08T14:43:09.028Z,10.00
2019-03-08T14:46:03.048Z,10.20
2019-03-08T14:48:32.145Z,9.90
2019-03-08T14:51:01.440Z,9.90
2019-03-08T14:53:32.743Z,10.00
2019-03-08T14:56:01.441Z,10.60
2019-03-08T14:58:32.600Z,10.50
2019-03-08T15:01:02.170Z,10.90
2019-03-08T15:03:31.907Z,11.40
2019-03-08T15:06:00.904Z,12.40
2019-03-08T15:08:30.008Z,12.80
2019-03-08T15:10:59.057Z,12.70
2019-03-08T15:13:28.117Z,12.60
2019-03-08T15:15:58.047Z,12.60
2019-03-08T15:18:29.599Z,12.40
2019-03-08T15:23:29.181Z,12.50
2019-03-08T15:30:57.614Z,12.60
2019-03-08T15:35:55.047Z,12.50
2019-03-08T15:40:52.689Z,12.30
2019-03-08T15:43:21.787Z,12.30
2019-03-08T15:48:19.393Z,12.10
2019-03-08T15:50:48.446Z,12.10
2019-03-08T15:53:17.535Z,12.10
2019-03-08T15:55:52.825Z,12.00
2019-03-08T15:58:17.500Z,11.90
2019-03-08T16:00:46.520Z,11.80
2019-03-08T16:03:15.675Z,11.90
2019-03-08T16:05:44.554Z,11.40
2019-03-08T16:10:42.460Z,11.70
2019-03-08T16:13:11.586Z,11.50
2019-03-08T16:18:09.525Z,11.40
2019-03-08T16:20:38.828Z,11.50
2019-03-08T16:23:08.533Z,11.40
2019-03-08T16:25:40.502Z,11.40
2019-03-08T16:28:10.650Z,11.20
2019-03-08T16:30:43.838Z,11.20
2019-03-08T16:36:07.205Z,11.10
2019-03-08T16:39:00.696Z,10.90
2019-03-08T16:42:08.429Z,10.70
2019-03-08T16:47:33.042Z,10.70
2019-03-08T16:50:11.396Z,10.60
2019-03-08T16:55:34.452Z,10.50
2019-03-08T16:58:17.119Z,10.50
2019-03-08T17:01:08.169Z,10.50
2019-03-08T17:03:45.374Z,10.50
2019-03-08T17:09:38.237Z,10.30
2019-03-08T17:15:05.359Z,10.20
2019-03-08T17:20:33.942Z,10.20
2019-03-08T17:23:28.305Z,10.00
2019-03-08T17:26:31.623Z,9.90
2019-03-08T17:29:08.133Z,9.80
2019-03-08T17:31:43.469Z,9.60
2019-03-08T17:34:47.285Z,9.50
2019-03-08T17:37:25.139Z,9.60
2019-03-08T17:40:08.883Z,9.50
2019-03-08T17:43:05.966Z,9.40
2019-03-08T17:46:09.806Z,9.40
2019-03-08T17:48:56.709Z,9.30
2019-03-08T17:51:43.571Z,9.30
2019-03-08T17:54:34.869Z,9.40
2019-03-08T17:57:25.959Z,9.40
2019-03-08T18:00:14.383Z,9.20
2019-03-08T18:03:05.233Z,9.20
2019-03-08T18:05:55.598Z,8.90
2019-03-08T18:08:39.069Z,8.80
2019-03-08T18:16:53.224Z,8.60
2019-03-08T18:22:12.722Z,8.80
2019-03-08T18:24:57.106Z,8.80
2019-03-08T18:27:42.357Z,8.80
2019-03-08T18:30:29.980Z,8.70
2019-03-08T18:33:09.561Z,8.80
2019-03-08T18:35:57.530Z,8.80
2019-03-08T18:38:48.510Z,8.70
2019-03-08T18:41:43.781Z,8.80
2019-03-08T18:44:34.999Z,8.80
2019-03-08T18:47:22.485Z,8.70
2019-03-08T18:50:07.683Z,8.70
2019-03-08T18:52:54.688Z,8.70
2019-03-08T18:58:28.259Z,8.70
2019-03-08T19:04:04.828Z,8.80
2019-03-08T19:06:56.330Z,8.80
2019-03-08T19:12:32.730Z,8.70
2019-03-08T20:48:51.990Z,8.20
